createdAt,value
2022-08-22T00:02:32.547Z,56.58
2022-08-22T00:03:03.228Z,52.93
2022-08-22T00:05:06.665Z,56.17
2022-08-22T00:07:40.870Z,56.40
2022-08-22T00:10:11.597Z,56.15
2022-08-22T00:12:52.219Z,56.20
2022-08-22T00:15:42.955Z,56.25
2022-08-22T00:18:12.772Z,56.19
2022-08-22T00:20:49.808Z,56.39
2022-08-22T00:23:20.196Z,56.45
2022-08-22T00:25:51.885Z,56.30
2022-08-22T00:28:22.264Z,56.35
2022-08-22T00:30:55.596Z,56.26
2022-08-22T00:33:28.467Z,55.97
2022-08-22T00:36:10.509Z,56.17
2022-08-22T00:38:42.608Z,56.50
2022-08-22T00:41:16.601Z,56.33
2022-08-22T00:44:06.376Z,56.25
2022-08-22T00:46:48.366Z,56.26
2022-08-22T00:49:25.456Z,56.14
2022-08-22T00:52:20.504Z,56.34
2022-08-22T00:55:12.122Z,55.96
2022-08-22T00:57:54.497Z,55.90
2022-08-22T01:00:24.251Z,55.69
2022-08-22T01:03:11.363Z,55.92
2022-08-22T01:05:52.117Z,55.92
2022-08-22T01:08:34.853Z,56.25
2022-08-22T01:11:15.195Z,55.99
2022-08-22T01:13:55.401Z,56.37
2022-08-22T01:16:38.235Z,55.79
2022-08-22T01:19:28.306Z,55.93
2022-08-22T01:22:10.917Z,56.22
2022-08-22T01:25:25.924Z,55.88
2022-08-22T01:28:14.336Z,56.32
2022-08-22T01:31:26.495Z,56.08
2022-08-22T01:34:38.104Z,56.30
2022-08-22T01:37:44.487Z,56.17
2022-08-22T01:40:58.042Z,56.28
2022-08-22T01:44:00.227Z,56.16
2022-08-22T01:46:33.811Z,56.03
2022-08-22T01:49:07.071Z,56.06
2022-08-22T01:51:41.084Z,56.19
2022-08-22T01:54:10.988Z,55.89
2022-08-22T01:56:41.454Z,55.89
2022-08-22T01:59:11.427Z,56.21
2022-08-22T02:01:53.667Z,56.32
2022-08-22T02:04:33.591Z,56.06
2022-08-22T02:07:05.146Z,56.04
2022-08-22T02:09:37.034Z,56.43
2022-08-22T02:12:26.937Z,56.43
2022-08-22T02:14:59.819Z,56.47
2022-08-22T02:17:31.445Z,56.05
2022-08-22T02:20:02.386Z,55.94
2022-08-22T02:22:44.378Z,55.94
2022-08-22T02:25:14.862Z,55.73
2022-08-22T02:27:50.992Z,56.11
2022-08-22T02:30:21.200Z,56.19
2022-08-22T02:33:08.324Z,56.01
2022-08-22T02:35:39.073Z,56.30
2022-08-22T02:38:16.803Z,56.17
2022-08-22T02:40:49.148Z,56.24
2022-08-22T02:43:20.641Z,56.19
2022-08-22T02:45:52.342Z,56.08
2022-08-22T02:48:28.237Z,55.89
2022-08-22T02:50:58.290Z,56.18
2022-08-22T02:53:33.964Z,56.28
2022-08-22T02:56:04.568Z,56.45
2022-08-22T02:58:38.618Z,56.27
2022-08-22T03:01:35.241Z,56.14
2022-08-22T03:04:44.727Z,56.32
2022-08-22T03:07:16.236Z,56.36
2022-08-22T03:09:48.811Z,56.29
2022-08-22T03:12:22.319Z,56.48
2022-08-22T03:14:56.096Z,56.47
2022-08-22T03:17:31.668Z,56.60
2022-08-22T03:20:03.497Z,56.53
2022-08-22T03:22:35.869Z,56.72
2022-08-22T03:25:09.394Z,57.00
2022-08-22T03:27:42.303Z,56.95
2022-08-22T03:30:14.075Z,56.81
2022-08-22T03:32:52.156Z,57.25
2022-08-22T03:35:26.151Z,56.99
2022-08-22T03:37:57.288Z,57.10
2022-08-22T03:40:31.680Z,57.44
2022-08-22T03:43:33.565Z,57.20
2022-08-22T03:46:23.981Z,57.36
2022-08-22T03:49:09.548Z,57.63
2022-08-22T03:51:46.055Z,57.46
2022-08-22T03:55:08.442Z,57.44
2022-08-22T03:58:27.701Z,57.30
2022-08-22T04:01:36.296Z,57.26
2022-08-22T04:04:22.432Z,57.32
2022-08-22T04:07:17.003Z,57.10
2022-08-22T04:10:42.661Z,57.35
2022-08-22T04:13:47.000Z,57.51
2022-08-22T04:16:31.313Z,57.46
2022-08-22T04:19:30.615Z,57.60
2022-08-22T04:22:15.805Z,57.87
2022-08-22T04:24:52.785Z,57.75
2022-08-22T04:27:23.767Z,57.54
2022-08-22T04:29:55.529Z,57.55
2022-08-22T04:32:27.420Z,57.99
2022-08-22T04:34:57.269Z,58.05
2022-08-22T04:37:26.376Z,57.88
2022-08-22T04:39:57.050Z,57.90
2022-08-22T04:42:32.589Z,57.90
2022-08-22T04:45:04.375Z,57.79
2022-08-22T04:47:36.407Z,57.90
2022-08-22T04:50:07.204Z,58.07
2022-08-22T04:52:42.330Z,57.91
2022-08-22T04:55:16.041Z,57.93
2022-08-22T04:57:48.243Z,58.26
2022-08-22T05:00:16.407Z,58.33
2022-08-22T05:02:50.917Z,58.45
2022-08-22T05:05:21.935Z,58.45
2022-08-22T05:07:50.849Z,58.22
2022-08-22T05:10:20.388Z,58.34
2022-08-22T05:12:51.240Z,58.34
2022-08-22T05:15:23.091Z,58.39
2022-08-22T05:17:53.158Z,58.46
2022-08-22T05:20:24.157Z,58.68
2022-08-22T05:22:53.604Z,58.66
2022-08-22T05:25:23.180Z,58.53
2022-08-22T05:27:53.286Z,58.90
2022-08-22T05:30:25.612Z,58.75
2022-08-22T05:32:56.448Z,58.64
2022-08-22T05:35:35.848Z,59.12
2022-08-22T05:38:03.920Z,59.33
2022-08-22T05:40:32.400Z,59.42
2022-08-22T05:43:00.442Z,59.60
2022-08-22T05:45:28.687Z,59.75
2022-08-22T05:48:00.022Z,59.81
2022-08-22T05:50:30.718Z,59.97
2022-08-22T05:53:03.608Z,60.05
2022-08-22T05:55:33.150Z,59.58
2022-08-22T05:58:25.005Z,60.26
2022-08-22T06:00:54.712Z,60.08
2022-08-22T06:03:26.968Z,60.13
2022-08-22T06:05:56.159Z,59.82
2022-08-22T06:08:30.126Z,60.02
2022-08-22T06:10:59.233Z,59.97
2022-08-22T06:13:32.219Z,60.18
2022-08-22T06:16:06.968Z,60.27
2022-08-22T06:18:40.135Z,60.63
2022-08-22T06:21:09.233Z,60.48
2022-08-22T06:23:38.468Z,60.73
2022-08-22T06:26:20.430Z,60.71
2022-08-22T06:28:54.780Z,61.08
2022-08-22T06:31:24.753Z,60.70
2022-08-22T06:33:56.888Z,61.08
2022-08-22T06:36:41.777Z,61.27
2022-08-22T06:39:18.602Z,61.26
2022-08-22T06:41:50.468Z,61.42
2022-08-22T06:44:21.208Z,61.36
2022-08-22T06:46:49.606Z,61.70
2022-08-22T06:49:19.056Z,61.89
2022-08-22T06:51:47.120Z,61.61
2022-08-22T06:54:17.373Z,61.58
2022-08-22T06:56:46.211Z,61.92
2022-08-22T06:59:15.209Z,61.64
2022-08-22T07:01:47.862Z,61.79
2022-08-22T07:04:16.570Z,61.91
2022-08-22T07:06:49.251Z,61.90
2022-08-22T07:09:23.972Z,61.93
2022-08-22T07:11:52.397Z,62.27
2022-08-22T07:14:27.023Z,62.10
2022-08-22T07:16:59.500Z,62.12
2022-08-22T07:19:28.737Z,62.19
2022-08-22T07:21:58.359Z,61.96
2022-08-22T07:24:28.560Z,62.38
2022-08-22T07:27:05.910Z,62.03
2022-08-22T07:29:39.882Z,62.45
2022-08-22T07:32:11.306Z,62.29
2022-08-22T07:34:47.377Z,62.47
2022-08-22T07:37:18.868Z,62.31
2022-08-22T07:39:50.373Z,62.52
2022-08-22T07:42:19.520Z,62.44
2022-08-22T07:45:07.674Z,62.54
2022-08-22T07:47:49.661Z,62.70
2022-08-22T07:50:20.738Z,62.55
2022-08-22T07:52:50.508Z,62.80
2022-08-22T07:55:20.015Z,62.81
2022-08-22T07:57:49.632Z,62.72
2022-08-22T08:00:21.073Z,62.73
2022-08-22T08:02:50.888Z,62.73
2022-08-22T08:05:19.243Z,62.72
2022-08-22T08:07:47.863Z,62.72
2022-08-22T08:10:19.371Z,62.40
2022-08-22T08:12:52.794Z,62.57
2022-08-22T08:15:30.433Z,62.63
2022-08-22T08:18:00.752Z,62.63
2022-08-22T08:20:29.007Z,62.94
2022-08-22T08:22:57.451Z,62.62
2022-08-22T08:25:28.134Z,62.54
2022-08-22T08:28:14.089Z,62.83
2022-08-22T08:30:45.156Z,62.93
2022-08-22T08:33:25.929Z,62.98
2022-08-22T08:36:02.882Z,63.02
2022-08-22T08:38:36.030Z,62.94
2022-08-22T08:41:47.902Z,62.97
2022-08-22T08:44:23.424Z,63.03
2022-08-22T08:46:58.665Z,62.75
2022-08-22T08:49:42.135Z,62.95
2022-08-22T08:52:28.781Z,63.11
2022-08-22T08:55:02.579Z,63.00
2022-08-22T08:57:55.238Z,62.83
2022-08-22T09:00:29.027Z,63.13
2022-08-22T09:03:08.003Z,62.82
2022-08-22T09:06:00.494Z,63.11
2022-08-22T09:12:01.644Z,63.09
2022-08-22T09:14:45.590Z,63.49
2022-08-22T09:17:27.243Z,63.24
2022-08-22T09:20:26.658Z,63.49
2022-08-22T09:23:47.496Z,63.36
2022-08-22T09:26:22.868Z,63.71
2022-08-22T09:28:54.620Z,63.68
2022-08-22T09:31:48.005Z,63.40
2022-08-22T09:34:23.891Z,63.25
2022-08-22T09:37:06.589Z,63.47
2022-08-22T09:39:37.681Z,63.48
2022-08-22T09:40:16.714Z,62.75
2022-08-22T09:42:09.859Z,63.40
2022-08-22T09:44:43.761Z,63.38
2022-08-22T09:47:24.768Z,63.64
2022-08-22T09:50:01.049Z,63.78
2022-08-22T09:52:51.660Z,63.74
2022-08-22T09:55:35.382Z,63.64
2022-08-22T09:58:06.079Z,63.58
2022-08-22T10:00:44.373Z,63.39
2022-08-22T10:03:17.349Z,63.46
2022-08-22T10:05:47.017Z,63.53
2022-08-22T10:08:23.512Z,63.58
2022-08-22T10:11:23.766Z,63.69
2022-08-22T10:14:01.560Z,63.86
2022-08-22T10:16:58.563Z,63.91
2022-08-22T10:19:32.025Z,63.88
2022-08-22T10:22:20.636Z,63.91
2022-08-22T10:24:53.297Z,63.25
2022-08-22T10:27:28.928Z,62.79
2022-08-22T10:30:05.191Z,62.83
2022-08-22T10:32:37.371Z,62.56
2022-08-22T10:35:14.837Z,62.41
2022-08-22T10:37:53.131Z,62.41
2022-08-22T10:40:25.665Z,62.39
2022-08-22T10:42:55.119Z,62.43
2022-08-22T10:45:36.853Z,62.97
2022-08-22T10:48:25.156Z,63.07
2022-08-22T10:51:01.127Z,62.99
2022-08-22T10:53:34.762Z,63.04
2022-08-22T10:56:11.994Z,62.72
2022-08-22T10:58:44.055Z,62.38
2022-08-22T11:01:38.409Z,61.76
2022-08-22T11:04:07.640Z,61.84
2022-08-22T11:06:46.394Z,61.77
2022-08-22T11:09:24.834Z,62.02
2022-08-22T11:12:00.783Z,62.38
2022-08-22T11:14:59.660Z,62.70
2022-08-22T11:17:39.742Z,62.96
2022-08-22T11:20:19.894Z,63.19
2022-08-22T11:23:23.884Z,63.01
2022-08-22T11:25:55.560Z,63.35
2022-08-22T11:28:43.606Z,63.62
2022-08-22T11:31:19.758Z,63.23
2022-08-22T11:33:53.419Z,63.24
2022-08-22T11:36:32.546Z,63.16
2022-08-22T11:39:09.893Z,62.97
2022-08-22T11:41:53.076Z,62.88
2022-08-22T11:44:22.969Z,63.33
2022-08-22T11:46:54.733Z,62.66
2022-08-22T11:49:33.583Z,62.30
2022-08-22T11:52:07.304Z,62.15
2022-08-22T11:55:09.122Z,62.04
2022-08-22T11:57:39.492Z,61.72
2022-08-22T12:00:24.869Z,61.62
2022-08-22T12:03:27.130Z,61.54
2022-08-22T12:05:58.421Z,61.35
2022-08-22T12:09:01.005Z,61.31
2022-08-22T12:11:36.928Z,60.72
2022-08-22T12:14:06.817Z,60.66
2022-08-22T12:16:39.226Z,60.26
2022-08-22T12:19:09.915Z,60.15
2022-08-22T12:21:55.328Z,59.93
2022-08-22T12:25:02.767Z,59.69
2022-08-22T12:27:50.846Z,59.63
2022-08-22T12:30:26.273Z,60.02
2022-08-22T12:33:26.881Z,59.76
2022-08-22T12:36:04.820Z,59.78
2022-08-22T12:38:49.587Z,59.97
2022-08-22T12:42:00.077Z,59.98
2022-08-22T12:44:40.252Z,59.74
2022-08-22T12:47:26.130Z,59.75
2022-08-22T12:50:20.775Z,59.47
2022-08-22T12:53:07.058Z,58.94
2022-08-22T12:55:42.497Z,59.31
2022-08-22T12:58:13.538Z,58.76
2022-08-22T13:00:45.229Z,58.73
2022-08-22T13:03:20.941Z,58.76
2022-08-22T13:05:56.979Z,58.80
2022-08-22T13:08:30.267Z,58.90
2022-08-22T13:11:01.264Z,58.60
2022-08-22T13:13:37.218Z,58.02
2022-08-22T13:16:09.300Z,58.71
2022-08-22T13:18:44.715Z,58.23
2022-08-22T13:21:15.794Z,58.03
2022-08-22T13:23:45.025Z,58.15
2022-08-22T13:26:32.073Z,58.11
2022-08-22T13:31:59.218Z,58.10
2022-08-22T13:34:39.577Z,57.52
2022-08-22T13:37:08.367Z,57.99
2022-08-22T13:39:39.809Z,57.84
2022-08-22T13:42:14.626Z,58.07
2022-08-22T13:44:56.991Z,57.80
2022-08-22T13:47:31.669Z,57.57
2022-08-22T13:50:07.280Z,57.92
2022-08-22T13:52:38.111Z,57.97
2022-08-22T13:55:12.266Z,58.11
2022-08-22T13:57:44.886Z,58.24
2022-08-22T14:01:01.047Z,58.18
2022-08-22T14:03:36.196Z,58.47
2022-08-22T14:06:37.517Z,58.66
2022-08-22T14:09:15.352Z,58.87
2022-08-22T14:11:47.392Z,59.28
2022-08-22T14:14:20.934Z,59.54
2022-08-22T14:16:50.823Z,59.22
2022-08-22T14:19:27.924Z,59.05
2022-08-22T14:21:59.254Z,59.24
2022-08-22T14:24:29.463Z,58.81
2022-08-22T14:26:59.747Z,58.98
2022-08-22T14:29:38.628Z,58.77
2022-08-22T14:32:08.813Z,58.78
2022-08-22T14:34:40.129Z,58.09
2022-08-22T14:37:16.876Z,57.12
2022-08-22T14:39:50.119Z,57.28
2022-08-22T14:42:22.885Z,57.28
2022-08-22T14:44:59.301Z,57.51
2022-08-22T14:47:55.041Z,57.71
2022-08-22T14:50:46.228Z,57.71
2022-08-22T14:53:25.129Z,58.17
2022-08-22T14:55:56.521Z,58.93
2022-08-22T14:58:26.359Z,59.09
2022-08-22T15:00:56.035Z,59.75
2022-08-22T15:03:29.351Z,60.19
2022-08-22T15:06:02.140Z,61.00
2022-08-22T15:08:32.928Z,61.39
2022-08-22T15:11:14.520Z,61.42
2022-08-22T15:13:44.520Z,61.13
2022-08-22T15:16:17.631Z,61.23
2022-08-22T15:18:51.821Z,60.98
2022-08-22T15:21:24.798Z,61.48
2022-08-22T15:23:54.929Z,61.61
2022-08-22T15:26:28.196Z,61.82
2022-08-22T15:28:59.494Z,62.07
2022-08-22T15:31:27.811Z,61.95
2022-08-22T15:34:05.214Z,61.75
2022-08-22T15:36:37.488Z,61.79
2022-08-22T15:39:28.872Z,61.61
2022-08-22T15:41:57.359Z,61.59
2022-08-22T15:44:32.547Z,62.05
2022-08-22T15:47:10.869Z,62.04
2022-08-22T15:49:50.400Z,62.10
2022-08-22T15:52:27.165Z,62.06
2022-08-22T15:55:22.956Z,62.32
2022-08-22T15:58:10.471Z,62.62
2022-08-22T16:00:43.827Z,63.00
2022-08-22T16:03:29.525Z,63.01
2022-08-22T16:05:59.747Z,63.49
2022-08-22T16:08:32.990Z,63.75
2022-08-22T16:11:33.044Z,63.85
2022-08-22T16:14:19.109Z,64.07
2022-08-22T16:17:03.412Z,64.10
2022-08-22T16:19:35.081Z,64.32
2022-08-22T16:22:21.007Z,64.48
2022-08-22T16:25:08.701Z,64.96
2022-08-22T16:27:38.621Z,65.31
2022-08-22T16:30:10.392Z,65.29
2022-08-22T16:32:38.547Z,65.40
2022-08-22T16:35:07.061Z,65.31
2022-08-22T16:37:59.505Z,65.39
2022-08-22T16:40:31.512Z,65.56
2022-08-22T16:43:14.906Z,65.32
2022-08-22T16:45:45.393Z,65.54
2022-08-22T16:48:25.325Z,65.41
2022-08-22T16:51:07.248Z,65.47
2022-08-22T16:54:05.620Z,65.39
2022-08-22T16:57:01.279Z,65.50
2022-08-22T17:00:01.673Z,65.60
2022-08-22T17:02:43.560Z,65.50
2022-08-22T17:05:21.347Z,65.92
2022-08-22T17:07:58.129Z,66.18
2022-08-22T17:10:36.635Z,66.44
2022-08-22T17:13:16.032Z,66.88
2022-08-22T17:15:52.195Z,67.06
2022-08-22T17:18:38.857Z,67.04
2022-08-22T17:21:11.475Z,67.38
2022-08-22T17:23:42.860Z,67.72
2022-08-22T17:26:20.319Z,68.05
2022-08-22T17:28:58.472Z,67.85
2022-08-22T17:31:33.435Z,68.37
2022-08-22T17:34:12.018Z,68.52
2022-08-22T17:36:47.774Z,68.21
2022-08-22T17:39:26.324Z,68.58
2022-08-22T17:41:57.149Z,68.41
2022-08-22T17:44:29.056Z,68.95
2022-08-22T17:47:00.501Z,68.60
2022-08-22T17:49:46.940Z,69.00
2022-08-22T17:52:18.521Z,68.79
2022-08-22T17:55:04.659Z,69.48
2022-08-22T17:57:34.301Z,69.00
2022-08-22T18:00:09.894Z,69.20
2022-08-22T18:02:40.688Z,69.07
2022-08-22T18:05:15.727Z,68.98
2022-08-22T18:07:56.455Z,69.21
2022-08-22T18:10:35.729Z,69.08
2022-08-22T18:13:07.342Z,69.29
2022-08-22T18:15:42.145Z,69.43
2022-08-22T18:18:30.254Z,69.48
2022-08-22T18:21:02.557Z,69.44
2022-08-22T18:23:40.223Z,69.44
2022-08-22T18:26:16.758Z,69.53
2022-08-22T18:28:48.220Z,69.69
2022-08-22T18:31:27.909Z,69.37
2022-08-22T18:34:02.057Z,69.49
2022-08-22T18:36:33.702Z,69.15
2022-08-22T18:39:04.235Z,69.33
2022-08-22T18:41:35.040Z,69.07
2022-08-22T18:44:11.105Z,69.20
2022-08-22T18:46:47.407Z,68.76
2022-08-22T18:49:39.421Z,68.64
2022-08-22T18:52:17.336Z,68.26
2022-08-22T18:54:57.575Z,68.07
2022-08-22T18:57:34.844Z,68.35
2022-08-22T19:00:12.538Z,68.05
2022-08-22T19:03:08.611Z,67.60
2022-08-22T19:06:13.969Z,67.73
2022-08-22T19:09:19.920Z,67.75
2022-08-22T19:11:53.105Z,67.42
2022-08-22T19:14:30.473Z,67.04
2022-08-22T19:17:29.522Z,66.97
2022-08-22T19:20:18.357Z,66.71
2022-08-22T19:22:50.927Z,66.86
2022-08-22T19:25:25.763Z,66.83
2022-08-22T19:28:22.834Z,66.42
2022-08-22T19:30:51.742Z,66.49
2022-08-22T19:33:34.358Z,66.51
2022-08-22T19:36:10.918Z,66.66
2022-08-22T19:39:00.230Z,66.06
2022-08-22T19:41:50.776Z,66.21
2022-08-22T19:44:40.537Z,66.00
2022-08-22T19:47:27.853Z,66.08
2022-08-22T19:49:59.084Z,66.01
2022-08-22T19:52:37.725Z,65.86
2022-08-22T19:55:10.534Z,65.91
2022-08-22T19:57:42.956Z,65.71
2022-08-22T20:00:12.673Z,65.71
2022-08-22T20:02:57.395Z,65.46
2022-08-22T20:05:30.093Z,65.65
2022-08-22T20:08:21.016Z,65.53
2022-08-22T20:10:58.995Z,65.50
2022-08-22T20:13:27.942Z,65.19
2022-08-22T20:16:07.185Z,65.20
2022-08-22T20:19:16.911Z,65.35
2022-08-22T20:21:50.036Z,65.36
2022-08-22T20:24:23.736Z,65.10
2022-08-22T20:27:12.816Z,65.01
2022-08-22T20:29:45.080Z,64.93
2022-08-22T20:32:16.579Z,64.67
2022-08-22T20:34:44.950Z,64.71
2022-08-22T20:37:32.445Z,64.94
2022-08-22T20:40:25.819Z,64.76
2022-08-22T20:43:03.733Z,64.59
2022-08-22T20:45:39.140Z,64.80
2022-08-22T20:48:09.618Z,64.61
2022-08-22T20:50:37.677Z,64.43
2022-08-22T20:53:09.724Z,64.68
2022-08-22T20:55:39.411Z,64.79
2022-08-22T20:58:22.735Z,64.61
2022-08-22T21:00:51.007Z,64.56
2022-08-22T21:03:28.550Z,64.79
2022-08-22T21:05:56.629Z,64.53
2022-08-22T21:08:26.567Z,64.65
2022-08-22T21:11:16.956Z,64.24
2022-08-22T21:13:45.031Z,64.30
2022-08-22T21:16:14.398Z,64.14
2022-08-22T21:18:45.902Z,64.26
2022-08-22T21:21:19.206Z,64.31
2022-08-22T21:23:48.379Z,64.20
2022-08-22T21:26:23.599Z,64.09
2022-08-22T21:28:57.736Z,64.22
2022-08-22T21:31:26.821Z,64.03
2022-08-22T21:33:57.964Z,64.11
2022-08-22T21:36:27.413Z,63.91
2022-08-22T21:38:56.989Z,64.05
2022-08-22T21:41:29.847Z,63.82
2022-08-22T21:43:58.100Z,63.69
2022-08-22T21:46:28.640Z,63.59
2022-08-22T21:49:01.693Z,63.64
2022-08-22T21:51:32.918Z,63.78
2022-08-22T21:54:40.894Z,63.87
2022-08-22T21:57:34.446Z,64.13
2022-08-22T22:00:03.403Z,64.01
2022-08-22T22:02:41.564Z,63.91
2022-08-22T22:05:11.451Z,63.95
2022-08-22T22:07:40.365Z,64.09
2022-08-22T22:10:10.404Z,63.71
2022-08-22T22:12:41.750Z,63.94
2022-08-22T22:15:10.596Z,63.60
2022-08-22T22:17:38.715Z,63.55
2022-08-22T22:20:07.963Z,63.35
2022-08-22T22:22:36.929Z,63.52
2022-08-22T22:25:06.079Z,63.35
2022-08-22T22:27:55.708Z,63.52
2022-08-22T22:30:26.344Z,63.52
2022-08-22T22:32:56.868Z,63.62
2022-08-22T22:35:25.025Z,63.45
2022-08-22T22:37:54.501Z,63.84
2022-08-22T22:40:24.028Z,63.68
2022-08-22T22:42:52.260Z,63.75
2022-08-22T22:45:21.896Z,63.35
2022-08-22T22:47:50.205Z,63.47
2022-08-22T22:50:19.527Z,63.44
2022-08-22T22:52:47.624Z,63.65
2022-08-22T22:55:24.569Z,63.59
2022-08-22T22:57:58.883Z,63.76
2022-08-22T23:00:30.633Z,63.59
2022-08-22T23:03:00.333Z,63.48
2022-08-22T23:05:31.081Z,63.70
2022-08-22T23:07:59.484Z,63.33
2022-08-22T23:10:29.495Z,63.38
2022-08-22T23:12:58.054Z,63.56
2022-08-22T23:15:26.258Z,63.36
2022-08-22T23:17:55.821Z,63.39
2022-08-22T23:20:24.332Z,62.80
2022-08-22T23:22:52.441Z,63.03
2022-08-22T23:25:23.117Z,62.82
2022-08-22T23:27:53.260Z,62.85
2022-08-22T23:30:21.704Z,62.80
2022-08-22T23:32:49.894Z,62.96
2022-08-22T23:35:19.523Z,62.74
2022-08-22T23:37:47.581Z,62.90
2022-08-22T23:40:15.653Z,63.06
2022-08-22T23:42:43.772Z,62.77
2022-08-22T23:45:12.041Z,62.36
2022-08-22T23:47:40.160Z,62.50
2022-08-22T23:50:08.551Z,62.40
2022-08-22T23:52:37.920Z,62.21
2022-08-22T23:55:06.828Z,62.01
2022-08-22T23:57:34.878Z,61.84
